Time;durP1;ratioP1;P1;durP2;ratioP2;P2;SDS_P1;SDS_P2;PMS_P1;PMS_P2;Temp;Humidity;BMP_temperature;BMP_pressure;BME280_temperature;BME280_humidity;BME280_pressure;Samples;Min_cycle;Max_cycle;Signal;HPM_P1;HPM_P2
2023/11/09 00:00:35;;;;;;;2.15;0.82;;;;;;;8.94;100.00;100142.97;5069151;28;20047;-67
2023/11/09 00:03:01;;;;;;;2.47;1.20;;;;;;;8.96;100.00;100140.22;5062168;28;20032;-68
2023/11/09 00:05:26;;;;;;;3.30;1.00;;;;;;;8.95;100.00;100142.00;5067676;28;20070;-67
2023/11/09 00:07:53;;;;;;;2.38;0.98;;;;;;;9.06;100.00;100132.28;5052056;28;20020;-67
2023/11/09 00:10:18;;;;;;;3.35;1.27;;;;;;;8.93;100.00;100127.63;5067064;28;20037;-67
2023/11/09 00:12:44;;;;;;;2.42;0.90;;;;;;;8.96;100.00;100130.69;5063461;28;20440;-67
2023/11/09 00:15:10;;;;;;;4.70;1.35;;;;;;;8.96;100.00;100119.53;5069546;28;20703;-67
2023/11/09 00:17:36;;;;;;;2.08;0.90;;;;;;;8.91;100.00;100114.03;5063962;28;20092;-67
2023/11/09 00:20:03;;;;;;;1.15;0.63;;;;;;;8.88;100.00;100120.34;5069965;28;20032;-67
2023/11/09 00:22:29;;;;;;;2.97;1.30;;;;;;;8.92;100.00;100116.47;5065636;28;20491;-68
2023/11/09 00:24:55;;;;;;;4.57;1.20;;;;;;;8.84;100.00;100113.09;5045922;28;20036;-68
2023/11/09 00:27:20;;;;;;;5.38;0.80;;;;;;;8.85;100.00;100109.50;5048642;28;20503;-67
2023/11/09 00:29:49;;;;;;;2.25;0.95;;;;;;;8.82;100.00;100102.91;5058985;28;20024;-67
2023/11/09 00:32:17;;;;;;;1.75;0.80;;;;;;;8.81;100.00;100103.84;5065126;28;20048;-67
2023/11/09 00:34:47;;;;;;;2.45;0.85;;;;;;;8.87;100.00;100087.72;5045703;28;20078;-67
2023/11/09 00:37:13;;;;;;;1.65;0.80;;;;;;;8.87;100.00;100087.72;5068237;28;20032;-67
2023/11/09 00:39:39;;;;;;;0.95;0.70;;;;;;;8.90;100.00;100084.78;5062949;28;20036;-67
2023/11/09 00:42:06;;;;;;;2.97;0.82;;;;;;;8.89;100.00;100092.69;5066093;28;20032;-67
2023/11/09 00:44:31;;;;;;;4.82;0.80;;;;;;;8.87;100.00;100089.47;5062154;28;20033;-68
2023/11/09 00:46:57;;;;;;;2.25;0.80;;;;;;;8.77;100.00;100080.09;5063667;28;20028;-67
2023/11/09 00:49:22;;;;;;;1.42;0.70;;;;;;;8.87;100.00;100072.22;5064366;28;20043;-67
2023/11/09 00:51:48;;;;;;;2.65;0.75;;;;;;;8.79;100.00;100073.97;5065310;28;20455;-67
2023/11/09 00:54:13;;;;;;;2.47;0.68;;;;;;;8.87;100.00;100068.78;5063051;28;20503;-66
2023/11/09 00:56:42;;;;;;;1.25;0.73;;;;;;;8.80;100.00;100057.47;5067597;28;20056;-67
2023/11/09 00:59:07;;;;;;;1.38;0.65;;;;;;;8.83;100.00;100052.00;5049622;28;20032;-67
2023/11/09 01:01:34;;;;;;;2.70;0.82;;;;;;;8.85;100.00;100052.63;5060480;28;20055;-67
2023/11/09 01:03:59;;;;;;;1.33;0.70;;;;;;;8.94;100.00;100054.25;5061578;28;20028;-67
2023/11/09 01:06:25;;;;;;;2.42;0.80;;;;;;;8.84;100.00;100051.03;5060761;28;20147;-67
2023/11/09 01:08:51;;;;;;;1.38;0.68;;;;;;;8.84;100.00;100048.44;5063270;28;20037;-67
2023/11/09 01:11:26;;;;;;;2.00;0.80;;;;;;;8.82;100.00;100040.84;5061042;28;20406;-67
2023/11/09 01:13:54;;;;;;;0.93;0.60;;;;;;;8.85;100.00;100034.53;5063423;28;20490;-67
2023/11/09 01:16:21;;;;;;;1.02;0.68;;;;;;;8.77;100.00;100040.53;5062332;28;20093;-67
2023/11/09 01:18:49;;;;;;;2.60;0.70;;;;;;;8.90;100.00;100038.25;5060310;28;20037;-67
2023/11/09 01:21:16;;;;;;;1.17;0.40;;;;;;;8.86;100.00;100021.47;5062117;28;20037;-67
2023/11/09 01:23:41;;;;;;;0.80;0.50;;;;;;;8.91;100.00;100024.38;5067607;28;20043;-66
2023/11/09 01:26:09;;;;;;;0.70;0.50;;;;;;;8.90;100.00;100021.94;5046034;28;20120;-67
2023/11/09 01:28:35;;;;;;;1.17;0.63;;;;;;;8.93;100.00;100011.28;5065129;28;20273;-67
2023/11/09 01:31:00;;;;;;;1.00;0.45;;;;;;;9.01;100.00;100006.09;5081240;28;20043;-67
2023/11/09 01:33:28;;;;;;;0.85;0.40;;;;;;;9.02;100.00;100012.84;5064724;28;20041;-67
2023/11/09 01:35:53;;;;;;;0.77;0.50;;;;;;;9.01;100.00;100010.47;5063680;28;20056;-67
2023/11/09 01:38:19;;;;;;;0.77;0.35;;;;;;;8.91;100.00;100011.44;5062997;28;20194;-67
2023/11/09 01:40:51;;;;;;;0.85;0.57;;;;;;;8.99;100.00;100010.63;5064548;28;20091;-67
2023/11/09 01:43:19;;;;;;;3.00;0.40;;;;;;;8.99;100.00;99996.88;5065271;28;20483;-67
2023/11/09 01:45:45;;;;;;;3.55;0.57;;;;;;;8.92;100.00;99997.53;5049687;28;20048;-67
2023/11/09 01:48:14;;;;;;;0.68;0.60;;;;;;;8.92;100.00;99994.94;5049739;28;20052;-67
2023/11/09 01:50:39;;;;;;;0.60;0.40;;;;;;;8.93;100.00;99988.00;5048821;28;20052;-67
2023/11/09 01:53:07;;;;;;;0.60;0.35;;;;;;;8.91;100.00;99990.75;5048051;28;20078;-67
2023/11/09 01:55:34;;;;;;;1.08;0.60;;;;;;;8.92;100.00;99987.19;5065508;28;20772;-67
2023/11/09 01:58:02;;;;;;;0.68;0.47;;;;;;;8.97;100.00;99976.34;5065741;28;20028;-67
2023/11/09 02:00:28;;;;;;;0.73;0.40;;;;;;;9.00;100.00;99982.97;5049417;28;20040;-67
2023/11/09 02:02:56;;;;;;;0.40;0.40;;;;;;;8.99;100.00;99971.03;5065137;28;20037;-67
2023/11/09 02:05:23;;;;;;;0.63;0.50;;;;;;;8.99;100.00;99968.44;5049071;28;20048;-67
2023/11/09 02:07:55;;;;;;;1.17;0.47;;;;;;;9.09;100.00;99961.28;5062180;28;20040;-67
2023/11/09 02:10:22;;;;;;;1.23;0.30;;;;;;;9.04;100.00;99959.22;5063924;28;20065;-67
2023/11/09 02:12:48;;;;;;;1.10;0.40;;;;;;;9.02;100.00;99958.53;5059065;28;21738;-67
2023/11/09 02:15:14;;;;;;;1.95;0.68;;;;;;;9.08;100.00;99947.56;5050988;28;20044;-67
2023/11/09 02:17:42;;;;;;;0.63;0.50;;;;;;;9.06;100.00;99940.91;5061869;28;20056;-67
2023/11/09 02:20:13;;;;;;;1.65;0.60;;;;;;;8.99;100.00;99945.97;5050744;28;20040;-67
2023/11/09 02:22:43;;;;;;;0.70;0.30;;;;;;;9.13;100.00;99942.66;5067624;28;20025;-67
2023/11/09 02:25:09;;;;;;;0.75;0.40;;;;;;;9.00;100.00;99937.22;5064593;28;20562;-67
2023/11/09 02:27:35;;;;;;;0.73;0.40;;;;;;;9.16;100.00;99933.78;5069074;28;20028;-67
2023/11/09 02:30:01;;;;;;;0.45;0.30;;;;;;;9.23;100.00;99939.09;5049831;28;20533;-67
2023/11/09 02:32:27;;;;;;;0.60;0.40;;;;;;;9.21;100.00;99933.28;5068804;28;20047;-67
2023/11/09 02:34:52;;;;;;;0.65;0.40;;;;;;;9.33;100.00;99929.34;5067723;28;20402;-67
2023/11/09 02:37:21;;;;;;;0.60;0.35;;;;;;;9.24;100.00;99930.38;5066277;28;20065;-67
2023/11/09 02:39:53;;;;;;;0.63;0.30;;;;;;;9.25;100.00;99924.19;5066095;28;20036;-67
2023/11/09 02:42:20;;;;;;;0.82;0.45;;;;;;;9.20;100.00;99927.31;5067096;28;20445;-67
2023/11/09 02:44:46;;;;;;;0.40;0.30;;;;;;;9.18;100.00;99913.72;5065572;28;20052;-67
2023/11/09 02:47:15;;;;;;;0.68;0.30;;;;;;;9.30;100.00;99919.34;5069259;28;20082;-67
2023/11/09 02:49:41;;;;;;;0.80;0.47;;;;;;;9.26;100.00;99907.72;5068099;28;20033;-69
2023/11/09 02:52:06;;;;;;;1.00;0.40;;;;;;;9.29;100.00;99915.16;5069464;28;20037;-68
2023/11/09 02:54:32;;;;;;;1.13;0.60;;;;;;;9.33;100.00;99899.09;5068123;28;20036;-69
2023/11/09 02:57:01;;;;;;;0.82;0.38;;;;;;;9.42;100.00;99894.69;5069735;28;20028;-69
2023/11/09 02:59:26;;;;;;;0.70;0.52;;;;;;;9.42;100.00;99902.47;5067308;28;20039;-69
2023/11/09 03:01:52;;;;;;;0.75;0.40;;;;;;;9.33;100.00;99893.94;5048347;28;20044;-69
2023/11/09 03:04:18;;;;;;;0.77;0.40;;;;;;;9.42;100.00;99894.69;5072226;28;20032;-69
2023/11/09 03:06:44;;;;;;;0.40;0.30;;;;;;;9.34;100.00;99892.13;5066865;28;20117;-69
2023/11/09 03:09:11;;;;;;;0.93;0.40;;;;;;;9.38;100.00;99883.09;5071667;28;20074;-68
2023/11/09 03:11:38;;;;;;;0.70;0.30;;;;;;;9.47;100.00;99882.03;5065762;28;20037;-70
2023/11/09 03:14:05;;;;;;;0.60;0.30;;;;;;;9.55;100.00;99886.38;5049475;28;20040;-69
2023/11/09 03:16:34;;;;;;;0.88;0.38;;;;;;;9.52;100.00;99866.00;5066119;28;20037;-69
2023/11/09 03:19:00;;;;;;;0.82;0.40;;;;;;;9.53;100.00;99885.72;5064822;28;20051;-69
2023/11/09 03:21:26;;;;;;;1.33;0.43;;;;;;;9.41;100.00;99877.56;5067146;28;20050;-69
2023/11/09 03:23:52;;;;;;;0.52;0.32;;;;;;;9.47;100.00;99881.25;5065381;28;20033;-69
2023/11/09 03:26:18;;;;;;;1.65;0.52;;;;;;;9.43;100.00;99869.63;5049961;28;20036;-69
2023/11/09 03:28:43;;;;;;;2.13;0.38;;;;;;;9.42;100.00;99874.00;5052848;28;20041;-69
2023/11/09 03:31:11;;;;;;;0.95;0.30;;;;;;;9.47;100.00;99866.50;5064697;28;20033;-69
2023/11/09 03:33:37;;;;;;;0.35;0.35;;;;;;;9.42;100.00;99868.81;5065132;28;20683;-69
2023/11/09 03:36:02;;;;;;;0.50;0.40;;;;;;;9.52;100.00;99868.59;5067266;28;20063;-69
2023/11/09 03:38:28;;;;;;;1.30;0.50;;;;;;;9.49;100.00;99880.13;5069484;28;20570;-69
2023/11/09 03:40:54;;;;;;;1.15;0.40;;;;;;;9.49;100.00;99866.34;5065052;28;20039;-68
2023/11/09 03:43:19;;;;;;;0.30;0.30;;;;;;;9.58;100.00;99870.50;5067885;28;20036;-69
2023/11/09 03:45:45;;;;;;;2.45;0.50;;;;;;;9.63;100.00;99870.78;5068379;28;20064;-69
2023/11/09 03:48:11;;;;;;;1.15;0.30;;;;;;;9.63;100.00;99857.84;5067070;28;20036;-70
2023/11/09 03:50:37;;;;;;;1.80;0.60;;;;;;;9.66;100.00;99862.69;5065815;28;20040;-70
2023/11/09 03:53:02;;;;;;;1.52;0.40;;;;;;;9.64;100.00;99864.63;5067421;28;20048;-69
2023/11/09 03:55:28;;;;;;;2.78;0.40;;;;;;;9.61;100.00;99859.00;5065617;28;20033;-69
2023/11/09 03:57:59;;;;;;;3.95;2.22;;;;;;;9.66;100.00;99859.28;5045897;28;20700;-69
2023/11/09 04:00:25;;;;;;;1.30;0.40;;;;;;;9.67;100.00;99868.66;5062544;28;20040;-69
2023/11/09 04:02:50;;;;;;;0.70;0.40;;;;;;;9.62;100.00;99869.16;5084475;28;20402;-69
2023/11/09 04:05:18;;;;;;;2.17;0.68;;;;;;;9.53;100.00;99863.25;5064016;28;20032;-69
2023/11/09 04:07:45;;;;;;;1.77;1.10;;;;;;;9.51;100.00;99857.44;5084913;28;20115;-69
2023/11/09 04:10:12;;;;;;;1.10;0.70;;;;;;;9.67;100.00;99859.13;5068896;28;20127;-69
2023/11/09 04:12:38;;;;;;;0.65;0.30;;;;;;;9.65;100.00;99855.09;5056087;28;20490;-69
2023/11/09 04:15:09;;;;;;;0.80;0.80;;;;;;;9.55;100.00;99857.91;5066785;28;20047;-69
2023/11/09 04:17:35;;;;;;;1.05;0.70;;;;;;;9.62;100.00;99860.59;5066438;28;20024;-69
2023/11/09 04:20:00;;;;;;;3.28;0.50;;;;;;;9.64;100.00;99853.47;5069366;28;20036;-69
2023/11/09 04:22:26;;;;;;;2.47;0.60;;;;;;;9.59;100.00;99858.34;5068376;28;20146;-69
2023/11/09 04:24:52;;;;;;;1.77;0.70;;;;;;;9.66;100.00;99864.44;5065634;28;20040;-69
2023/11/09 04:27:17;;;;;;;2.17;0.50;;;;;;;9.64;100.00;99874.19;5071330;28;20028;-69
2023/11/09 04:29:43;;;;;;;0.68;0.28;;;;;;;9.69;100.00;99875.28;5080188;28;20029;-69
2023/11/09 04:32:09;;;;;;;0.75;0.50;;;;;;;9.64;100.00;99871.59;5069039;28;20035;-70
2023/11/09 04:34:37;;;;;;;2.08;0.60;;;;;;;9.72;100.00;99859.41;5064623;28;20100;-69
2023/11/09 04:37:03;;;;;;;0.73;0.65;;;;;;;9.70;100.00;99857.94;5066293;28;20093;-69
2023/11/09 04:39:31;;;;;;;1.38;0.55;;;;;;;9.74;100.00;99854.84;5065781;28;20036;-70
2023/11/09 04:41:59;;;;;;;2.15;0.80;;;;;;;9.80;100.00;99855.16;5067406;28;20032;-69
2023/11/09 04:44:26;;;;;;;2.33;0.47;;;;;;;9.78;100.00;99854.53;5049057;28;20039;-69
2023/11/09 04:46:55;;;;;;;0.98;0.40;;;;;;;9.82;100.00;99851.41;5051332;28;20112;-69
2023/11/09 04:49:22;;;;;;;1.17;0.70;;;;;;;9.79;100.00;99856.13;5048576;28;20037;-69
2023/11/09 04:51:49;;;;;;;0.93;0.55;;;;;;;9.71;100.00;99862.97;5066266;28;20028;-69
2023/11/09 04:54:24;;;;;;;1.05;0.50;;;;;;;9.63;100.00;99855.25;5067271;28;20070;-70
2023/11/09 04:57:03;;;;;;;2.75;0.60;;;;;;;9.66;100.00;99864.44;5059775;28;20056;-68
2023/11/09 05:07:29;;;;;;;1.45;0.30;;;;;;;9.63;100.00;99849.28;5073701;28;20024;-69
2023/11/09 05:09:55;;;;;;;2.47;0.50;;;;;;;9.63;100.00;99847.50;5080107;28;20415;-69
2023/11/09 05:12:24;;;;;;;1.42;0.93;;;;;;;9.64;100.00;99846.50;5070889;28;20068;-69
2023/11/09 05:14:49;;;;;;;1.65;0.70;;;;;;;9.67;100.00;99841.00;5063041;28;20067;-69
2023/11/09 05:17:15;;;;;;;1.85;0.80;;;;;;;9.64;100.00;99848.28;5065306;28;20052;-69
2023/11/09 05:19:42;;;;;;;0.65;0.50;;;;;;;9.60;100.00;99840.06;5064701;28;20028;-69
2023/11/09 05:22:08;;;;;;;2.13;0.40;;;;;;;9.53;100.00;99845.16;5070664;28;20177;-69
2023/11/09 05:24:40;;;;;;;2.30;0.43;;;;;;;9.57;100.00;99835.25;5066370;28;20032;-69
2023/11/09 05:27:10;;;;;;;0.90;0.45;;;;;;;9.60;100.00;99841.84;5068178;28;20039;-69
2023/11/09 05:29:36;;;;;;;2.13;0.80;;;;;;;9.60;100.00;99832.31;5064366;28;20128;-69
2023/11/09 05:32:06;;;;;;;3.03;0.50;;;;;;;9.56;100.00;99831.03;5065768;28;20043;-69
2023/11/09 05:34:37;;;;;;;1.58;0.60;;;;;;;9.56;100.00;99831.03;5066411;28;20032;-69
2023/11/09 05:37:03;;;;;;;2.28;0.57;;;;;;;9.54;100.00;99836.38;5066377;28;20037;-68
2023/11/09 05:39:29;;;;;;;1.27;0.47;;;;;;;9.50;100.00;99842.09;5068630;28;20041;-69
2023/11/09 05:41:55;;;;;;;1.73;0.50;;;;;;;9.54;100.00;99843.34;5065305;28;20029;-68
2023/11/09 05:44:21;;;;;;;2.00;0.70;;;;;;;9.55;100.00;99838.00;5065047;28;20037;-69
2023/11/09 05:46:47;;;;;;;2.00;0.73;;;;;;;9.54;100.00;99845.94;5066935;28;20032;-69
2023/11/09 05:49:12;;;;;;;1.60;0.60;;;;;;;9.37;100.00;99842.66;5064344;28;20039;-69
2023/11/09 05:51:39;;;;;;;3.28;1.10;;;;;;;9.29;100.00;99850.47;5070307;28;20072;-69
2023/11/09 05:54:06;;;;;;;1.40;0.60;;;;;;;9.32;100.00;99847.53;5062188;28;20163;-69
2023/11/09 05:56:32;;;;;;;4.57;1.33;;;;;;;9.27;100.00;99848.06;5067243;28;20044;-69
2023/11/09 05:58:58;;;;;;;3.95;1.00;;;;;;;9.25;100.00;99849.19;5069365;28;20112;-70
2023/11/09 06:01:24;;;;;;;3.85;1.30;;;;;;;9.28;100.00;99849.66;5070650;28;20119;-69
2023/11/09 06:03:51;;;;;;;4.13;0.75;;;;;;;9.22;100.00;99845.16;5071614;28;20197;-69
2023/11/09 06:06:19;;;;;;;3.22;0.80;;;;;;;9.10;100.00;99843.94;5067793;28;20413;-69
2023/11/09 06:08:45;;;;;;;4.32;1.40;;;;;;;9.06;100.00;99853.81;5075225;28;20398;-68
2023/11/09 06:11:10;;;;;;;2.53;1.55;;;;;;;9.12;100.00;99852.34;5067956;28;20056;-68
2023/11/09 06:13:37;;;;;;;1.92;0.90;;;;;;;9.23;100.00;99854.53;5071451;28;20048;-69
2023/11/09 06:16:05;;;;;;;3.15;0.93;;;;;;;9.12;100.00;99855.72;5067498;28;20036;-69
2023/11/09 06:18:33;;;;;;;2.03;0.88;;;;;;;9.15;100.00;99864.91;5071832;28;20028;-69
2023/11/09 06:21:02;;;;;;;3.00;1.25;;;;;;;9.10;100.00;99857.69;5069118;28;20045;-69
2023/11/09 06:23:28;;;;;;;1.80;0.90;;;;;;;9.15;100.00;99859.75;5054761;28;20557;-69
2023/11/09 06:25:55;;;;;;;2.63;0.90;;;;;;;9.10;100.00;99864.63;5074804;28;20036;-69
2023/11/09 06:28:22;;;;;;;2.42;0.98;;;;;;;9.02;100.00;99868.03;5068785;28;20119;-69
2023/11/09 06:30:48;;;;;;;3.78;1.92;;;;;;;9.06;100.00;99863.34;5071534;28;20040;-69
2023/11/09 06:33:14;;;;;;;4.53;1.63;;;;;;;9.09;100.00;99868.19;5070361;28;20033;-68
2023/11/09 06:35:40;;;;;;;3.80;1.40;;;;;;;9.13;100.00;99879.78;5068646;28;20029;-69
2023/11/09 06:38:08;;;;;;;7.65;3.90;;;;;;;9.07;100.00;99876.09;5073523;28;20115;-69
2023/11/09 06:40:36;;;;;;;3.30;1.95;;;;;;;9.09;100.00;99876.75;5067651;28;20379;-68
2023/11/09 06:43:01;;;;;;;4.68;1.88;;;;;;;9.05;100.00;99877.25;5068794;28;20035;-69
2023/11/09 06:45:27;;;;;;;3.17;0.90;;;;;;;9.09;100.00;99881.91;5071651;28;20028;-69
2023/11/09 06:47:53;;;;;;;3.03;1.48;;;;;;;9.16;100.00;99889.81;5070104;28;20127;-69
2023/11/09 06:50:19;;;;;;;13.48;8.75;;;;;;;9.08;100.00;99887.25;5068397;28;20055;-69
2023/11/09 06:52:46;;;;;;;7.80;3.38;;;;;;;9.09;100.00;99891.47;5068451;28;20058;-70
2023/11/09 06:55:17;;;;;;;3.47;2.42;;;;;;;8.99;100.00;99891.66;5064882;28;20487;-69
2023/11/09 06:57:44;;;;;;;4.18;1.58;;;;;;;8.94;100.00;99894.72;5069281;28;20131;-69
2023/11/09 07:00:11;;;;;;;15.85;8.40;;;;;;;9.01;100.00;99897.47;5067267;28;20085;-69
2023/11/09 07:02:40;;;;;;;4.65;2.90;;;;;;;9.04;100.00;99904.06;5065730;28;20040;-69
2023/11/09 07:05:07;;;;;;;10.05;5.82;;;;;;;8.96;100.00;99910.88;5069401;28;20045;-69
2023/11/09 07:07:33;;;;;;;39.90;15.45;;;;;;;9.01;100.00;99913.00;5066771;28;20036;-69
2023/11/09 07:10:01;;;;;;;16.13;6.85;;;;;;;9.04;100.00;99917.84;5068551;28;20048;-69
2023/11/09 07:12:27;;;;;;;16.15;5.85;;;;;;;9.00;100.00;99924.28;5068688;28;20074;-69
2023/11/09 07:14:56;;;;;;;25.15;11.98;;;;;;;9.03;100.00;99938.69;5068680;28;20036;-70
2023/11/09 07:17:22;;;;;;;1.95;1.00;;;;;;;9.09;100.00;99940.59;5070140;28;20078;-69
2023/11/09 07:19:48;;;;;;;5.57;2.58;;;;;;;9.00;100.00;99928.66;5048905;28;20074;-69
2023/11/09 07:22:15;;;;;;;3.47;1.10;;;;;;;9.08;100.00;99929.47;5069356;28;20036;-69
2023/11/09 07:24:44;;;;;;;24.05;12.85;;;;;;;9.05;100.00;99924.59;5065031;28;20479;-69
2023/11/09 07:27:10;;;;;;;13.52;6.85;;;;;;;8.96;100.00;99931.56;5072019;28;20033;-69
2023/11/09 07:29:41;;;;;;;6.75;3.85;;;;;;;8.90;100.00;99934.81;5072641;28;20043;-69
2023/11/09 07:32:07;;;;;;;8.65;3.92;;;;;;;8.86;100.00;99936.13;5069303;28;20441;-68
2023/11/09 07:34:36;;;;;;;4.57;2.90;;;;;;;8.88;100.00;99936.78;5069688;28;20124;-69
2023/11/09 07:37:03;;;;;;;1.52;1.02;;;;;;;8.92;100.00;99939.84;5067609;28;20111;-68
2023/11/09 07:39:29;;;;;;;4.30;2.47;;;;;;;8.96;100.00;99948.88;5063442;28;20390;-69
2023/11/09 07:41:58;;;;;;;3.13;1.60;;;;;;;8.94;100.00;99943.88;5068715;28;20028;-69
2023/11/09 07:44:24;;;;;;;2.25;1.50;;;;;;;8.95;100.00;99944.69;5071823;28;20055;-67
2023/11/09 07:46:49;;;;;;;7.47;2.97;;;;;;;8.95;100.00;99944.69;5067053;28;20086;-68
2023/11/09 07:49:15;;;;;;;6.78;1.90;;;;;;;8.94;100.00;99937.91;5064689;28;20037;-68
2023/11/09 07:51:42;;;;;;;6.38;1.23;;;;;;;8.98;100.00;99939.16;5066259;28;20029;-68
2023/11/09 07:54:09;;;;;;;6.28;1.30;;;;;;;8.90;100.00;99942.59;5069464;28;20102;-69
2023/11/09 07:56:36;;;;;;;5.47;1.23;;;;;;;9.04;100.00;99954.03;5066371;28;20086;-69
2023/11/09 07:59:02;;;;;;;5.18;1.23;;;;;;;9.01;100.00;99945.81;5069769;28;20032;-69
2023/11/09 08:01:28;;;;;;;8.52;1.13;;;;;;;9.00;100.00;99947.56;5066602;28;20110;-69
2023/11/09 08:03:54;;;;;;;3.90;1.40;;;;;;;9.00;100.00;99946.75;5064233;28;20612;-69
2023/11/09 08:06:19;;;;;;;2.97;1.50;;;;;;;8.97;100.00;99947.91;5069552;28;20413;-69
2023/11/09 08:08:44;;;;;;;4.78;1.40;;;;;;;8.96;100.00;99952.25;5052551;28;20032;-69
2023/11/09 08:11:11;;;;;;;5.93;1.35;;;;;;;9.07;100.00;99943.34;5068575;28;20028;-69
2023/11/09 08:13:40;;;;;;;5.25;2.13;;;;;;;9.12;100.00;99948.03;5068702;28;20024;-69
2023/11/09 08:16:05;;;;;;;5.60;1.98;;;;;;;9.08;100.00;99949.31;5066325;28;20195;-68
2023/11/09 08:18:32;;;;;;;8.02;3.00;;;;;;;9.03;100.00;99942.06;5067210;28;20700;-68
2023/11/09 08:20:59;;;;;;;5.55;1.50;;;;;;;9.05;100.00;99944.50;5063327;28;20573;-68
2023/11/09 08:23:25;;;;;;;5.15;2.10;;;;;;;9.01;100.00;99948.38;5063166;28;20043;-69
2023/11/09 08:25:51;;;;;;;6.05;1.60;;;;;;;8.91;100.00;99949.38;5062375;28;20048;-68
2023/11/09 08:28:17;;;;;;;12.55;5.22;;;;;;;8.91;100.00;99951.97;5060131;28;20028;-69
2023/11/09 08:30:43;;;;;;;18.83;5.80;;;;;;;8.96;100.00;99946.28;5064556;28;20699;-69
2023/11/09 08:33:09;;;;;;;18.35;5.72;;;;;;;9.01;100.00;99954.38;5070518;28;20044;-69
2023/11/09 08:35:37;;;;;;;17.38;6.28;;;;;;;9.08;100.00;99952.72;5066601;28;20032;-69
2023/11/09 08:38:03;;;;;;;23.83;10.35;;;;;;;9.20;100.00;99957.53;5068489;28;20037;-69
2023/11/09 08:40:29;;;;;;;11.93;5.25;;;;;;;9.30;100.00;99953.75;5067377;28;20459;-69
2023/11/09 08:42:55;;;;;;;26.02;5.35;;;;;;;9.18;100.00;99954.31;5063956;28;20033;-69
2023/11/09 08:45:23;;;;;;;7.03;2.42;;;;;;;9.13;100.00;99958.19;5061855;28;20040;-68
2023/11/09 08:47:49;;;;;;;10.40;2.90;;;;;;;9.19;100.00;99954.13;5068164;28;20029;-69
2023/11/09 08:50:16;;;;;;;12.85;2.30;;;;;;;9.21;100.00;99949.63;5060558;28;20053;-69
2023/11/09 08:52:53;;;;;;;14.80;4.65;;;;;;;9.19;100.00;99964.47;5059495;28;20091;-69
2023/11/09 08:55:20;;;;;;;14.77;4.40;;;;;;;9.30;100.00;99963.31;5064062;28;20491;-69
2023/11/09 08:57:47;;;;;;;13.25;3.67;;;;;;;9.25;100.00;99969.00;5063637;28;20033;-68
2023/11/09 09:00:19;;;;;;;15.43;6.55;;;;;;;9.22;100.00;99966.75;5066546;28;20062;-68
2023/11/09 09:02:48;;;;;;;14.88;4.20;;;;;;;9.28;100.00;99963.47;5060761;28;20085;-68
2023/11/09 09:05:18;;;;;;;18.65;5.82;;;;;;;9.38;100.00;99970.22;5065814;28;20037;-67
2023/11/09 09:07:45;;;;;;;12.52;2.63;;;;;;;9.40;100.00;99958.75;5067172;28;20406;-67
2023/11/09 09:10:16;;;;;;;14.15;3.63;;;;;;;9.43;100.00;99961.00;5062443;28;20120;-67
2023/11/09 09:12:45;;;;;;;20.00;5.38;;;;;;;9.48;100.00;99950.94;5053253;28;20032;-67
2023/11/09 09:15:32;;;;;;;14.13;3.35;;;;;;;9.50;100.00;99954.16;5067266;28;20405;-67
2023/11/09 09:17:58;;;;;;;14.43;3.88;;;;;;;9.47;100.00;99951.09;5072300;28;20032;-67
2023/11/09 09:20:27;;;;;;;21.73;6.03;;;;;;;9.45;100.00;99953.06;5064134;28;20150;-67
2023/11/09 09:22:59;;;;;;;16.38;3.40;;;;;;;9.42;100.00;99964.56;5062010;28;20037;-67
2023/11/09 09:25:25;;;;;;;16.77;3.83;;;;;;;9.37;100.00;99961.66;5062562;28;20045;-67
2023/11/09 09:27:51;;;;;;;20.25;5.45;;;;;;;9.44;100.00;99949.69;5064429;28;20131;-67
2023/11/09 09:30:19;;;;;;;15.48;3.75;;;;;;;9.34;100.00;99957.66;5069877;28;20037;-68
2023/11/09 09:32:45;;;;;;;14.68;2.72;;;;;;;9.50;100.00;99956.75;5068663;28;20027;-67
2023/11/09 09:35:15;;;;;;;15.07;4.50;;;;;;;9.37;100.00;99960.88;5071599;28;20472;-67
2023/11/09 09:37:45;;;;;;;8.38;3.03;;;;;;;9.47;100.00;99967.44;5071120;28;20035;-68
2023/11/09 09:40:17;;;;;;;14.30;3.22;;;;;;;9.57;100.00;99969.00;5082489;28;20043;-67
2023/11/09 09:42:44;;;;;;;15.65;5.00;;;;;;;9.57;100.00;99967.25;5066291;28;20115;-67
2023/11/09 09:45:17;;;;;;;20.17;5.20;;;;;;;9.51;100.00;99979.09;5053806;28;20052;-67
2023/11/09 09:47:49;;;;;;;30.85;16.27;;;;;;;9.50;100.00;99976.66;5069052;28;20055;-67
2023/11/09 09:50:18;;;;;;;18.85;9.05;;;;;;;9.45;100.00;99984.13;5069066;28;20101;-67
2023/11/09 09:52:48;;;;;;;18.88;3.92;;;;;;;9.44;100.00;99970.38;5064884;28;20035;-68
2023/11/09 09:55:18;;;;;;;15.80;3.70;;;;;;;9.38;100.00;99965.88;5067799;28;20040;-66
2023/11/09 09:57:45;;;;;;;11.98;2.67;;;;;;;9.49;100.00;99977.63;5067467;28;20060;-66
2023/11/09 10:00:23;;;;;;;13.38;2.85;;;;;;;9.53;100.00;99979.72;5064489;28;20536;-66
2023/11/09 10:02:59;;;;;;;18.05;4.25;;;;;;;9.49;100.00;99983.63;5050425;28;20024;-66
2023/11/09 10:05:27;;;;;;;17.25;5.32;;;;;;;9.57;100.00;99985.38;5069808;28;20033;-66
2023/11/09 10:07:56;;;;;;;14.82;3.25;;;;;;;9.53;100.00;99987.47;5066916;28;20260;-66
2023/11/09 10:10:22;;;;;;;15.15;2.80;;;;;;;9.50;100.00;99980.03;5053451;28;20083;-66
2023/11/09 10:12:47;;;;;;;15.32;3.00;;;;;;;9.66;100.00;99975.75;5068160;28;20060;-66
2023/11/09 10:15:20;;;;;;;18.63;4.38;;;;;;;9.58;100.00;99971.44;5068604;28;20032;-66
2023/11/09 10:17:46;;;;;;;18.77;5.63;;;;;;;9.52;100.00;99979.88;5066276;28;20036;-66
2023/11/09 10:20:15;;;;;;;27.23;9.73;;;;;;;9.57;100.00;99974.19;5069340;28;21040;-66
2023/11/09 10:22:43;;;;;;;35.67;14.52;;;;;;;9.74;100.00;99975.75;5067649;28;20620;-65
2023/11/09 10:25:13;;;;;;;19.02;6.82;;;;;;;9.78;100.00;99965.84;5069021;28;20041;-66
2023/11/09 10:27:39;;;;;;;32.63;10.93;;;;;;;9.77;100.00;99966.81;5068836;28;20039;-65
2023/11/09 10:30:06;;;;;;;20.08;7.78;;;;;;;9.80;100.00;99962.09;5053390;28;20124;-66
2023/11/09 10:32:35;;;;;;;24.38;8.52;;;;;;;9.86;100.00;99958.81;5067945;28;20035;-67
2023/11/09 10:35:02;;;;;;;16.30;7.28;;;;;;;9.84;100.00;99963.38;5065610;28;20082;-66
2023/11/09 10:37:33;;;;;;;16.52;5.10;;;;;;;9.97;100.00;99956.81;5067741;28;20120;-66
2023/11/09 10:40:12;;;;;;;22.13;7.38;;;;;;;10.04;100.00;99953.38;5068044;28;20048;-66
2023/11/09 10:42:39;;;;;;;15.57;4.78;;;;;;;10.11;100.00;99958.66;5067663;28;20071;-66
2023/11/09 10:45:10;;;;;;;28.02;7.60;;;;;;;9.99;100.00;99963.44;5067143;28;20060;-66
2023/11/09 10:47:40;;;;;;;25.02;6.90;;;;;;;9.94;100.00;99960.56;5060153;28;20029;-66
2023/11/09 10:50:18;;;;;;;28.45;7.40;;;;;;;10.02;100.00;99959.69;5065756;28;20126;-66
2023/11/09 10:52:43;;;;;;;12.02;3.25;;;;;;;10.04;100.00;99963.72;5065189;28;20081;-66
2023/11/09 10:55:16;;;;;;;17.20;5.55;;;;;;;10.05;100.00;99961.94;5068647;28;20414;-66
2023/11/09 10:57:43;;;;;;;20.88;5.03;;;;;;;10.05;100.00;99946.41;5070456;28;20032;-66
2023/11/09 11:00:25;;;;;;;15.65;7.28;;;;;;;10.03;100.00;99958.72;5068478;28;20111;-66
2023/11/09 11:02:53;;;;;;;17.45;4.03;;;;;;;10.07;100.00;99953.00;5065495;28;20039;-66
2023/11/09 11:05:25;;;;;;;20.58;6.45;;;;;;;10.20;100.00;99954.22;5062912;28;20081;-66
2023/11/09 11:08:22;;;;;;;19.00;4.50;;;;;;;10.20;100.00;99946.47;5062594;28;20089;-66
2023/11/09 11:10:51;;;;;;;19.13;5.03;;;;;;;10.26;100.00;99941.38;5066627;28;20040;-66
2023/11/09 11:13:19;;;;;;;15.35;6.20;;;;;;;10.21;100.00;99948.88;5069306;28;20490;-66
2023/11/09 11:16:07;;;;;;;15.35;4.70;;;;;;;10.26;100.00;99954.31;5068513;28;20037;-66
2023/11/09 11:19:06;;;;;;;14.18;6.03;;;;;;;10.29;100.00;99950.59;5067478;28;20047;-67
2023/11/09 11:21:45;;;;;;;16.02;6.25;;;;;;;10.31;100.00;99961.63;5063477;28;20047;-66
2023/11/09 11:24:39;;;;;;;31.73;11.27;;;;;;;10.35;100.00;99954.31;5067328;28;20376;-66
2023/11/09 11:27:16;;;;;;;17.25;5.00;;;;;;;10.39;100.00;99956.34;5066299;28;20036;-66
2023/11/09 11:29:45;;;;;;;13.10;5.03;;;;;;;10.43;100.00;99954.22;5064082;28;20451;-66
2023/11/09 11:32:16;;;;;;;22.48;6.97;;;;;;;10.48;100.00;99941.56;5066926;28;20032;-66
2023/11/09 11:34:55;;;;;;;15.80;3.00;;;;;;;10.36;100.00;99940.34;5044254;28;20040;-66
2023/11/09 11:37:31;;;;;;;15.32;3.20;;;;;;;10.47;100.00;99939.94;5068041;28;20124;-66
2023/11/09 11:39:59;;;;;;;19.42;3.78;;;;;;;10.52;100.00;99935.03;5064962;28;20055;-66